createdAt,value
2019-06-01T00:03:50.630Z,13.45
2019-06-01T00:08:53.214Z,12.03
2019-06-01T00:13:56.292Z,13.74
2019-06-01T00:18:59.900Z,12.61
2019-06-01T00:24:03.018Z,14.93
2019-06-01T00:29:05.595Z,11.14
2019-06-01T00:34:08.448Z,13.40
2019-06-01T00:39:11.158Z,12.47
2019-06-01T00:44:14.301Z,12.50
2019-06-01T00:49:16.668Z,12.41
2019-06-01T00:54:19.250Z,13.58
2019-06-01T00:59:22.228Z,11.93
2019-06-01T01:04:25.068Z,11.49
2019-06-01T01:09:28.561Z,11.85
2019-06-01T01:14:31.305Z,12.11
2019-06-01T01:19:33.871Z,9.21
2019-06-01T01:24:36.505Z,12.19
2019-06-01T01:29:39.730Z,12.43
2019-06-01T01:34:42.445Z,12.79
2019-06-01T01:39:45.263Z,9.21
2019-06-01T01:44:48.659Z,14.46
2019-06-01T01:49:52.101Z,10.27
2019-06-01T01:54:54.716Z,12.79
2019-06-01T01:59:57.377Z,10.65
2019-06-01T02:04:59.872Z,10.70
2019-06-01T02:10:01.917Z,11.18
2019-06-01T02:15:03.027Z,8.53
2019-06-01T02:20:05.399Z,9.04
2019-06-01T02:25:07.987Z,11.14
2019-06-01T02:30:10.380Z,10.57
2019-06-01T02:35:13.022Z,11.45
2019-06-01T02:40:15.806Z,8.33
2019-06-01T02:45:18.326Z,10.97
2019-06-01T02:50:20.777Z,10.07
2019-06-01T02:55:23.536Z,9.74
2019-06-01T03:00:29.606Z,7.52
2019-06-01T03:05:32.184Z,7.18
2019-06-01T03:10:34.784Z,9.22
2019-06-01T03:15:37.319Z,8.56
2019-06-01T03:20:39.681Z,6.43
2019-06-01T03:25:42.116Z,8.07
2019-06-01T03:30:45.910Z,6.54
2019-06-01T03:35:46.458Z,7.67
2019-06-01T03:40:48.788Z,8.74
2019-06-01T03:45:52.248Z,6.75
2019-06-01T03:50:54.693Z,8.75
2019-06-01T03:55:57.463Z,5.43
2019-06-01T04:01:00.952Z,3.90
2019-06-01T04:06:03.509Z,3.22
2019-06-01T04:11:05.825Z,2.96
2019-06-01T04:16:10.032Z,3.99
2019-06-01T04:21:12.164Z,3.82
2019-06-01T04:26:13.610Z,1.61
2019-06-01T04:31:16.519Z,2.51
2019-06-01T04:36:19.189Z,1.48
2019-06-01T04:41:21.657Z,3.23
2019-06-01T04:46:25.026Z,1.64
2019-06-01T04:51:27.365Z,1.37
2019-06-01T04:56:29.824Z,1.03
2019-06-01T05:01:32.314Z,0.57
2019-06-01T05:06:35.829Z,0.68
2019-06-01T05:11:39.149Z,0.55
2019-06-01T05:16:42.898Z,0.58
2019-06-01T05:21:46.483Z,0.61
2019-06-01T05:26:49.400Z,0.59
2019-06-01T05:31:52.073Z,0.59
2019-06-01T05:36:54.918Z,0.84
2019-06-01T05:41:56.258Z,0.59
2019-06-01T05:46:58.863Z,0.93
2019-06-01T05:52:01.316Z,0.55
2019-06-01T05:57:03.956Z,0.54
2019-06-01T06:02:06.706Z,0.45
2019-06-01T06:07:10.659Z,1.07
2019-06-01T06:12:13.217Z,0.62
2019-06-01T06:17:17.319Z,0.90
2019-06-01T06:22:18.213Z,0.48
2019-06-01T06:27:19.119Z,0.96
2019-06-01T06:32:21.842Z,1.17
2019-06-01T06:37:25.020Z,1.55
2019-06-01T06:42:27.461Z,1.10
2019-06-01T06:47:30.212Z,1.52
2019-06-01T06:52:33.011Z,0.79
2019-06-01T06:57:36.528Z,0.87
2019-06-01T07:02:39.166Z,0.98
2019-06-01T07:07:42.183Z,1.45
2019-06-01T07:12:44.967Z,0.96
2019-06-01T07:17:48.723Z,0.95
2019-06-01T07:22:51.561Z,0.75
2019-06-01T07:27:54.256Z,0.72
2019-06-01T07:32:57.143Z,0.90
2019-06-01T07:37:59.687Z,0.71
2019-06-01T07:43:02.106Z,0.79
2019-06-01T07:48:06.516Z,1.22
2019-06-01T07:53:09.241Z,2.01
2019-06-01T07:58:12.061Z,3.14
2019-06-01T08:03:14.557Z,5.17
2019-06-01T08:08:17.199Z,2.58
2019-06-01T08:13:19.578Z,3.90
2019-06-01T08:18:22.222Z,4.14
2019-06-01T08:23:24.515Z,3.95
2019-06-01T08:28:28.923Z,3.97
2019-06-01T08:33:32.881Z,4.16
2019-06-01T08:38:33.656Z,3.80
2019-06-01T08:43:34.915Z,5.63
2019-06-01T08:48:39.221Z,4.62
2019-06-01T08:53:41.633Z,3.98
2019-06-01T08:58:45.425Z,5.32
2019-06-01T09:03:48.427Z,4.84
2019-06-01T09:08:51.307Z,5.31
2019-06-01T09:13:55.377Z,4.12
2019-06-01T09:18:58.497Z,4.72
2019-06-01T09:24:01.919Z,6.11
2019-06-01T09:29:04.994Z,5.42
2019-06-01T09:34:07.835Z,4.84
2019-06-01T09:39:11.105Z,4.29
2019-06-01T09:44:13.950Z,4.47
2019-06-01T09:49:16.450Z,4.33
2019-06-01T09:54:18.928Z,5.77
2019-06-01T09:59:21.654Z,5.78
2019-06-01T10:04:24.358Z,5.40
2019-06-01T10:09:26.907Z,5.59
2019-06-01T10:14:30.086Z,7.88
2019-06-01T10:19:32.590Z,7.92
2019-06-01T10:24:33.557Z,9.32
2019-06-01T10:29:36.778Z,7.66
2019-06-01T10:34:39.895Z,11.95
2019-06-01T10:39:41.422Z,7.97
2019-06-01T10:44:45.734Z,7.43
2019-06-01T10:49:45.889Z,9.15
2019-06-01T10:54:48.668Z,6.87
2019-06-01T10:59:51.346Z,8.07
2019-06-01T11:04:54.688Z,7.54
2019-06-01T11:09:57.238Z,5.38
2019-06-01T11:14:59.778Z,7.04
2019-06-01T11:20:02.812Z,6.69
2019-06-01T11:25:05.336Z,5.80
2019-06-01T11:30:08.934Z,8.45
2019-06-01T11:35:11.678Z,8.65
2019-06-01T11:40:15.211Z,10.33
2019-06-01T11:45:18.659Z,8.13
2019-06-01T11:50:21.469Z,9.67
2019-06-01T11:55:24.463Z,10.18
2019-06-01T12:00:27.136Z,8.36
2019-06-01T12:05:29.552Z,8.79
2019-06-01T12:10:32.291Z,8.43
2019-06-01T12:15:36.173Z,9.18
2019-06-01T12:20:38.540Z,9.19
2019-06-01T12:25:40.151Z,10.23
2019-06-01T12:30:41.656Z,7.64
2019-06-01T12:35:44.093Z,10.76
2019-06-01T12:40:47.428Z,8.23
2019-06-01T12:46:05.494Z,8.58
2019-06-01T12:50:52.605Z,8.90
2019-06-01T12:55:53.680Z,10.89
2019-06-01T13:00:56.360Z,9.61
2019-06-01T13:05:58.914Z,11.82
2019-06-01T13:11:01.443Z,9.12
2019-06-01T13:16:03.957Z,9.90
2019-06-01T13:21:06.971Z,9.60
2019-06-01T13:26:09.572Z,9.31
2019-06-01T13:31:13.087Z,9.17
2019-06-01T13:36:15.752Z,11.08
2019-06-01T13:41:18.248Z,10.32
2019-06-01T13:46:20.922Z,9.18
2019-06-01T13:51:23.715Z,8.96
2019-06-01T13:56:26.446Z,9.48
2019-06-01T14:01:29.058Z,7.61
2019-06-01T14:06:31.736Z,10.29
2019-06-01T14:11:34.710Z,11.71
2019-06-01T14:16:38.863Z,9.19
2019-06-01T14:21:41.579Z,10.88
2019-06-01T14:26:44.223Z,7.26
2019-06-01T14:31:48.468Z,8.62
2019-06-01T14:36:50.534Z,9.64
2019-06-01T14:41:53.493Z,11.05
2019-06-01T14:47:01.673Z,9.28
2019-06-01T14:51:56.332Z,7.80
2019-06-01T14:56:58.791Z,10.58
2019-06-01T15:02:01.433Z,8.43
2019-06-01T15:07:03.904Z,8.23
2019-06-01T15:12:07.247Z,6.99
2019-06-01T15:17:09.902Z,7.27
2019-06-01T15:22:14.406Z,6.59
2019-06-01T15:27:17.312Z,6.78
2019-06-01T15:32:20.458Z,7.55
2019-06-01T15:37:23.134Z,7.37
2019-06-01T15:42:25.925Z,7.09
2019-06-01T15:47:28.381Z,3.36
2019-06-01T15:52:31.074Z,2.47
2019-06-01T15:57:34.457Z,2.97
2019-06-01T16:02:37.228Z,3.76
2019-06-01T16:07:39.682Z,2.56
2019-06-01T16:12:42.427Z,2.49
2019-06-01T16:17:45.236Z,1.66
2019-06-01T16:22:48.344Z,1.73
2019-06-01T16:27:51.147Z,3.49
2019-06-01T16:32:56.390Z,3.77
2019-06-01T16:37:58.879Z,2.60
2019-06-01T16:43:01.474Z,2.52
2019-06-01T16:48:06.397Z,3.62
2019-06-01T16:53:08.258Z,3.56
2019-06-01T16:58:11.892Z,2.01
2019-06-01T17:03:14.481Z,0.98
2019-06-01T17:08:16.916Z,1.07
2019-06-01T17:13:19.645Z,0.76
2019-06-01T17:18:22.703Z,0.34
2019-06-01T17:23:27.922Z,0.84
2019-06-01T17:28:28.567Z,0.76
2019-06-01T17:33:32.133Z,1.75
2019-06-01T17:38:35.040Z,0.31
2019-06-01T17:43:37.758Z,0.29
2019-06-01T17:48:40.263Z,0.32
2019-06-01T17:53:42.867Z,0.27
2019-06-01T17:58:45.420Z,0.33
2019-06-01T18:03:48.539Z,0.93
2019-06-01T18:08:51.073Z,0.89
2019-06-01T18:13:53.900Z,0.58
2019-06-01T18:18:56.376Z,0.34
2019-06-01T18:24:02.671Z,1.17
2019-06-01T18:29:02.404Z,0.77
2019-06-01T18:34:03.279Z,2.33
2019-06-01T18:39:07.500Z,1.42
2019-06-01T18:44:09.710Z,0.47
2019-06-01T18:49:11.952Z,0.46
2019-06-01T18:54:15.172Z,0.42
2019-06-01T18:59:16.028Z,1.60
2019-06-01T19:04:18.576Z,0.69
2019-06-01T19:09:21.062Z,0.71
2019-06-01T19:14:24.660Z,0.56
2019-06-01T19:19:27.116Z,1.20
2019-06-01T19:24:29.860Z,0.84
2019-06-01T19:29:32.478Z,0.97
2019-06-01T19:34:35.004Z,0.74
2019-06-01T19:39:37.395Z,0.96
2019-06-01T19:44:40.058Z,0.39
2019-06-01T19:49:44.010Z,1.68
2019-06-01T19:54:45.343Z,0.48
2019-06-01T19:59:48.756Z,0.63
2019-06-01T20:04:51.265Z,3.22
2019-06-01T20:09:53.894Z,0.72
2019-06-01T20:14:57.765Z,1.45
2019-06-01T20:20:00.951Z,2.49
2019-06-01T20:25:04.029Z,0.46
2019-06-01T20:30:06.734Z,0.50
2019-06-01T20:35:10.152Z,0.78
2019-06-01T20:40:12.547Z,1.21
2019-06-01T20:45:16.580Z,0.77
2019-06-01T20:50:17.184Z,0.75
2019-06-01T20:55:21.107Z,0.51
2019-06-01T21:00:21.899Z,1.05
2019-06-01T21:05:24.548Z,0.85
2019-06-01T21:10:27.130Z,0.65
2019-06-01T21:15:30.022Z,0.81
2019-06-01T21:20:33.146Z,0.53
2019-06-01T21:25:35.823Z,0.52
2019-06-01T21:30:38.252Z,0.60
2019-06-01T21:35:41.118Z,0.74
2019-06-01T21:40:43.660Z,0.59
2019-06-01T21:45:46.299Z,0.58
2019-06-01T21:50:49.080Z,0.55
2019-06-01T21:55:51.991Z,0.46
2019-06-01T22:00:54.342Z,0.44
2019-06-01T22:05:56.821Z,0.58
2019-06-01T22:10:59.275Z,0.80
2019-06-01T22:16:01.799Z,1.13
2019-06-01T22:21:04.830Z,0.56
2019-06-01T22:26:07.723Z,0.99
2019-06-01T22:31:10.255Z,0.94
2019-06-01T22:36:13.138Z,0.67
2019-06-01T22:41:15.748Z,0.98
2019-06-01T22:46:18.227Z,0.79
2019-06-01T22:51:20.880Z,1.10
2019-06-01T22:56:23.371Z,0.49
2019-06-01T23:01:26.796Z,1.01
2019-06-01T23:06:29.440Z,0.94
2019-06-01T23:11:32.102Z,0.71
2019-06-01T23:16:34.560Z,0.49
2019-06-01T23:21:37.000Z,0.66
2019-06-01T23:26:39.569Z,1.33
2019-06-01T23:31:42.093Z,0.58
2019-06-01T23:36:44.570Z,1.58
2019-06-01T23:41:47.300Z,0.46
2019-06-01T23:46:49.849Z,0.55
2019-06-01T23:51:52.214Z,0.51
2019-06-01T23:56:54.935Z,0.55
